sensor_id;sensor_type;location;lat;lon;timestamp;pressure;altitude;pressure_sealevel;temperature;humidity
49945;BME280;35838;49.134;9.212;2023-06-10T08:43:32;99541.03;;;23.79;100.00
49945;BME280;35838;49.134;9.212;2023-06-10T08:45:07;99552.34;;;23.96;100.00
49945;BME280;35838;49.134;9.212;2023-06-10T08:46:41;99552.91;;;24.01;100.00
49945;BME280;35838;49.134;9.212;2023-06-10T08:48:18;99551.28;;;23.99;100.00
49945;BME280;35838;49.134;9.212;2023-06-10T08:49:52;99553.56;;;24.05;100.00
49945;BME280;35838;49.134;9.212;2023-06-10T08:51:27;99547.97;;;24.09;100.00
49945;BME280;35838;49.134;9.212;2023-06-10T08:53:01;99550.00;;;24.19;100.00
49945;BME280;35838;49.134;9.212;2023-06-10T08:54:33;99547.03;;;24.23;100.00
49945;BME280;35838;49.134;9.212;2023-06-10T08:56:08;99552.34;;;24.23;100.00
49945;BME280;35838;49.134;9.212;2023-06-10T08:57:42;99542.78;;;24.34;100.00
49945;BME280;35838;49.134;9.212;2023-06-10T08:59:21;99550.44;;;24.38;100.00
49945;BME280;35838;49.134;9.212;2023-06-10T09:00:54;99542.81;;;24.47;100.00
49945;BME280;35838;49.134;9.212;2023-06-10T09:02:29;99551.31;;;24.52;100.00
49945;BME280;35838;49.134;9.212;2023-06-10T09:04:05;99550.16;;;24.56;100.00
49945;BME280;35838;49.134;9.212;2023-06-10T09:05:39;99538.38;;;24.60;100.00
49945;BME280;35838;49.134;9.212;2023-06-10T09:07:14;99538.81;;;24.67;100.00
49945;BME280;35838;49.134;9.212;2023-06-10T09:08:48;99544.69;;;24.72;100.00
49945;BME280;35838;49.134;9.212;2023-06-10T09:10:22;99536.09;;;24.68;100.00
49945;BME280;35838;49.134;9.212;2023-06-10T09:11:55;99533.22;;;24.71;100.00
49945;BME280;35838;49.134;9.212;2023-06-10T09:13:29;99541.28;;;24.70;100.00
49945;BME280;35838;49.134;9.212;2023-06-10T09:15:06;99540.56;;;24.81;100.00
49945;BME280;35838;49.134;9.212;2023-06-10T09:16:40;99535.88;;;24.84;100.00
49945;BME280;35838;49.134;9.212;2023-06-10T09:18:14;99527.06;;;24.84;100.00
49945;BME280;35838;49.134;9.212;2023-06-10T09:19:47;99528.00;;;24.96;100.00
49945;BME280;35838;49.134;9.212;2023-06-10T09:21:24;99530.25;;;24.89;100.00
49945;BME280;35838;49.134;9.212;2023-06-10T09:22:58;99525.66;;;24.91;100.00
49945;BME280;35838;49.134;9.212;2023-06-10T09:24:32;99522.69;;;24.96;100.00
49945;BME280;35838;49.134;9.212;2023-06-10T09:26:08;99529.69;;;24.97;100.00
49945;BME280;35838;49.134;9.212;2023-06-10T09:27:45;99524.19;;;24.87;100.00
49945;BME280;35838;49.134;9.212;2023-06-10T09:29:24;99512.31;;;24.93;100.00
49945;BME280;35838;49.134;9.212;2023-06-10T09:31:06;99520.16;;;24.94;100.00
49945;BME280;35838;49.134;9.212;2023-06-10T09:32:40;99517.19;;;24.99;100.00
49945;BME280;35838;49.134;9.212;2023-06-10T09:34:14;99518.09;;;25.11;100.00
49945;BME280;35838;49.134;9.212;2023-06-10T09:35:49;99511.41;;;25.18;100.00
49945;BME280;35838;49.134;9.212;2023-06-10T09:37:23;99516.50;;;25.21;100.00
49945;BME280;35838;49.134;9.212;2023-06-10T09:38:56;99524.88;;;25.28;100.00
49945;BME280;35838;49.134;9.212;2023-06-10T09:40:30;99513.81;;;25.34;100.00
49945;BME280;35838;49.134;9.212;2023-06-10T09:42:04;99518.28;;;25.33;100.00
49945;BME280;35838;49.134;9.212;2023-06-10T09:43:48;99512.00;;;25.47;100.00
49945;BME280;35838;49.134;9.212;2023-06-10T09:45:22;99516.25;;;25.50;100.00
49945;BME280;35838;49.134;9.212;2023-06-10T09:46:59;99507.38;;;25.25;100.00
49945;BME280;35838;49.134;9.212;2023-06-10T09:48:34;99509.69;;;25.30;100.00
49945;BME280;35838;49.134;9.212;2023-06-10T09:50:08;99506.47;;;25.38;100.00
49945;BME280;35838;49.134;9.212;2023-06-10T09:51:48;99509.34;;;25.34;100.00
49945;BME280;35838;49.134;9.212;2023-06-10T09:53:22;99502.03;;;25.38;100.00
49945;BME280;35838;49.134;9.212;2023-06-10T09:54:58;99505.72;;;25.35;100.00
49945;BME280;35838;49.134;9.212;2023-06-10T09:56:33;99507.88;;;25.30;100.00
49945;BME280;35838;49.134;9.212;2023-06-10T09:58:07;99509.03;;;25.26;99.62
49945;BME280;35838;49.134;9.212;2023-06-10T09:59:41;99499.91;;;25.43;100.00
49945;BME280;35838;49.134;9.212;2023-06-10T10:01:16;99500.31;;;25.50;100.00
49945;BME280;35838;49.134;9.212;2023-06-10T10:02:53;99500.31;;;25.50;99.82
49945;BME280;35838;49.134;9.212;2023-06-10T10:04:27;99497.31;;;25.55;100.00
49945;BME280;35838;49.134;9.212;2023-06-10T10:06:01;99495.81;;;25.50;100.00
49945;BME280;35838;49.134;9.212;2023-06-10T10:07:35;99500.31;;;25.50;100.00
49945;BME280;35838;49.134;9.212;2023-06-10T10:09:08;99498.59;;;25.49;100.00
49945;BME280;35838;49.134;9.212;2023-06-10T10:10:42;99494.03;;;25.51;100.00
49945;BME280;35838;49.134;9.212;2023-06-10T10:12:16;99492.50;;;25.60;100.00
49945;BME280;35838;49.134;9.212;2023-06-10T10:13:50;99484.69;;;25.70;100.00
49945;BME280;35838;49.134;9.212;2023-06-10T10:15:25;99491.47;;;25.74;97.94
49945;BME280;35838;49.134;9.212;2023-06-10T10:17:02;99495.31;;;25.70;99.61
49945;BME280;35838;49.134;9.212;2023-06-10T10:18:41;99493.66;;;25.69;96.15
49945;BME280;35838;49.134;9.212;2023-06-10T10:20:16;99491.81;;;25.93;100.00
49945;BME280;35838;49.134;9.212;2023-06-10T10:21:52;99485.41;;;25.96;94.29
49945;BME280;35838;49.134;9.212;2023-06-10T10:23:30;99484.66;;;25.83;93.58
49945;BME280;35838;49.134;9.212;2023-06-10T10:25:07;99485.97;;;25.88;92.04
49945;BME280;35838;49.134;9.212;2023-06-10T10:26:41;99483.56;;;25.85;93.06
49945;BME280;35838;49.134;9.212;2023-06-10T10:28:15;99486.44;;;25.82;95.42
49945;BME280;35838;49.134;9.212;2023-06-10T10:29:51;99485.00;;;25.78;96.28
49945;BME280;35838;49.134;9.212;2023-06-10T10:31:25;99483.63;;;25.72;95.14
49945;BME280;35838;49.134;9.212;2023-06-10T10:33:04;99479.75;;;25.52;94.67
49945;BME280;35838;49.134;9.212;2023-06-10T10:34:43;99482.84;;;25.59;96.61
49945;BME280;35838;49.134;9.212;2023-06-10T10:36:20;99482.78;;;25.72;99.66
49945;BME280;35838;49.134;9.212;2023-06-10T10:37:54;99481.59;;;25.76;96.48
49945;BME280;35838;49.134;9.212;2023-06-10T10:39:27;99479.94;;;25.86;94.07
49945;BME280;35838;49.134;9.212;2023-06-10T10:41:01;99475.97;;;25.92;97.67
49945;BME280;35838;49.134;9.212;2023-06-10T10:42:35;99466.47;;;26.01;92.88
49945;BME280;35838;49.134;9.212;2023-06-10T10:44:09;99475.19;;;26.03;91.33
49945;BME280;35838;49.134;9.212;2023-06-10T10:45:45;99464.28;;;26.06;90.05
49945;BME280;35838;49.134;9.212;2023-06-10T10:47:19;99465.03;;;26.08;91.39
49945;BME280;35838;49.134;9.212;2023-06-10T10:48:54;99460.88;;;26.17;92.93
49945;BME280;35838;49.134;9.212;2023-06-10T10:50:32;99466.31;;;26.26;91.74
49945;BME280;35838;49.134;9.212;2023-06-10T10:52:09;99466.44;;;26.36;91.47
49945;BME280;35838;49.134;9.212;2023-06-10T10:53:44;99472.03;;;26.56;95.11
49945;BME280;35838;49.134;9.212;2023-06-10T10:55:35;99464.91;;;26.68;90.17
49945;BME280;35838;49.134;9.212;2023-06-10T10:57:09;99472.09;;;26.79;91.60
49945;BME280;35838;49.134;9.212;2023-06-10T10:58:41;99474.50;;;26.93;99.15
49945;BME280;35838;49.134;9.212;2023-06-10T11:00:15;99466.38;;;26.95;87.45
49945;BME280;35838;49.134;9.212;2023-06-10T11:01:56;99467.38;;;26.82;83.49
49945;BME280;35838;49.134;9.212;2023-06-10T11:03:31;99466.75;;;26.90;86.25
49945;BME280;35838;49.134;9.212;2023-06-10T11:05:15;99459.84;;;27.10;90.70
49945;BME280;35838;49.134;9.212;2023-06-10T11:06:54;99462.84;;;27.17;90.73
49945;BME280;35838;49.134;9.212;2023-06-10T11:08:45;99461.00;;;27.29;87.61
49945;BME280;35838;49.134;9.212;2023-06-10T11:10:20;99453.94;;;27.39;84.25
49945;BME280;35838;49.134;9.212;2023-06-10T11:12:01;99456.16;;;27.45;86.31
49945;BME280;35838;49.134;9.212;2023-06-10T11:13:32;99459.56;;;27.36;84.54
49945;BME280;35838;49.134;9.212;2023-06-10T11:15:09;99459.53;;;27.47;91.28
49945;BME280;35838;49.134;9.212;2023-06-10T11:16:40;99458.41;;;27.61;88.05
49945;BME280;35838;49.134;9.212;2023-06-10T11:18:21;99452.25;;;27.38;80.70
49945;BME280;35838;49.134;9.212;2023-06-10T11:19:55;99457.47;;;27.51;86.30
49945;BME280;35838;49.134;9.212;2023-06-10T11:21:29;99453.22;;;27.48;82.79
49945;BME280;35838;49.134;9.212;2023-06-10T11:23:07;99456.63;;;27.50;84.73
49945;BME280;35838;49.134;9.212;2023-06-10T11:24:39;99453.41;;;27.68;88.04
49945;BME280;35838;49.134;9.212;2023-06-10T11:26:13;99451.16;;;27.52;83.84
49945;BME280;35838;49.134;9.212;2023-06-10T11:27:46;99455.66;;;27.40;85.41
49945;BME280;35838;49.134;9.212;2023-06-10T11:29:25;99456.28;;;27.32;87.44
49945;BME280;35838;49.134;9.212;2023-06-10T11:30:58;99455.81;;;27.27;87.77
49945;BME280;35838;49.134;9.212;2023-06-10T11:32:33;99451.72;;;27.23;78.77
49945;BME280;35838;49.134;9.212;2023-06-10T11:34:07;99444.91;;;27.30;75.46
49945;BME280;35838;49.134;9.212;2023-06-10T11:35:40;99444.03;;;27.52;81.94
49945;BME280;35838;49.134;9.212;2023-06-10T11:37:14;99444.69;;;27.66;80.57
49945;BME280;35838;49.134;9.212;2023-06-10T11:38:52;99445.81;;;27.84;82.81
49945;BME280;35838;49.134;9.212;2023-06-10T11:40:26;99451.28;;;28.16;83.88
49945;BME280;35838;49.134;9.212;2023-06-10T11:42:01;99448.91;;;28.22;80.58
49945;BME280;35838;49.134;9.212;2023-06-10T11:43:35;99441.88;;;28.42;79.74
49945;BME280;35838;49.134;9.212;2023-06-10T11:45:09;99444.19;;;28.57;83.68
49945;BME280;35838;49.134;9.212;2023-06-10T11:46:43;99427.13;;;28.69;82.22
49945;BME280;35838;49.134;9.212;2023-06-10T11:48:17;99435.31;;;28.77;77.41
49945;BME280;35838;49.134;9.212;2023-06-10T11:49:55;99427.41;;;28.45;73.88
49945;BME280;35838;49.134;9.212;2023-06-10T11:51:31;99436.47;;;28.33;76.44
49945;BME280;35838;49.134;9.212;2023-06-10T11:53:07;99435.19;;;28.27;74.22
49945;BME280;35838;49.134;9.212;2023-06-10T11:54:46;99429.06;;;28.15;73.77
49945;BME280;35838;49.134;9.212;2023-06-10T11:56:26;99430.75;;;28.37;78.28
49945;BME280;35838;49.134;9.212;2023-06-10T11:58:00;99420.25;;;28.45;77.19
49945;BME280;35838;49.134;9.212;2023-06-10T11:59:34;99424.25;;;28.61;77.05
49945;BME280;35838;49.134;9.212;2023-06-10T12:01:09;99430.25;;;28.74;76.51
49945;BME280;35838;49.134;9.212;2023-06-10T12:02:40;99419.06;;;29.00;76.38
49945;BME280;35838;49.134;9.212;2023-06-10T12:04:14;99422.16;;;29.05;70.02
49945;BME280;35838;49.134;9.212;2023-06-10T12:05:55;99420.34;;;29.06;65.64
49945;BME280;35838;49.134;9.212;2023-06-10T12:07:29;99424.00;;;28.95;69.18
49945;BME280;35838;49.134;9.212;2023-06-10T12:09:02;99425.53;;;28.98;68.83
49945;BME280;35838;49.134;9.212;2023-06-10T12:10:36;99427.63;;;28.94;68.61
49945;BME280;35838;49.134;9.212;2023-06-10T12:12:12;99439.47;;;29.01;71.17
49945;BME280;35838;49.134;9.212;2023-06-10T12:13:46;99425.56;;;29.07;64.79
49945;BME280;35838;49.134;9.212;2023-06-10T12:15:23;99430.44;;;29.43;65.85
49945;BME280;35838;49.134;9.212;2023-06-10T12:16:57;99430.13;;;29.76;70.46
49945;BME280;35838;49.134;9.212;2023-06-10T12:18:31;99427.59;;;30.13;71.76
49945;BME280;35838;49.134;9.212;2023-06-10T12:20:05;99424.00;;;30.32;61.81
49945;BME280;35838;49.134;9.212;2023-06-10T12:21:39;99419.91;;;30.28;57.52
49945;BME280;35838;49.134;9.212;2023-06-10T12:23:13;99424.28;;;30.29;64.13
49945;BME280;35838;49.134;9.212;2023-06-10T12:24:57;99415.16;;;30.22;58.09
49945;BME280;35838;49.134;9.212;2023-06-10T12:26:36;99415.22;;;30.50;55.86
49945;BME280;35838;49.134;9.212;2023-06-10T12:28:10;99412.75;;;30.29;58.63
49945;BME280;35838;49.134;9.212;2023-06-10T12:29:50;99415.31;;;30.11;57.32
49945;BME280;35838;49.134;9.212;2023-06-10T12:31:25;99414.25;;;29.84;59.49
49945;BME280;35838;49.134;9.212;2023-06-10T12:32:59;99411.88;;;29.51;61.62
49945;BME280;35838;49.134;9.212;2023-06-10T12:34:34;99418.44;;;29.77;63.62
49945;BME280;35838;49.134;9.212;2023-06-10T12:36:06;99418.03;;;29.72;52.37
49945;BME280;35838;49.134;9.212;2023-06-10T12:37:55;99410.88;;;30.01;55.50
49945;BME280;35838;49.134;9.212;2023-06-10T12:39:30;99409.53;;;30.15;64.24
49945;BME280;35838;49.134;9.212;2023-06-10T12:41:02;99416.06;;;30.03;59.98
49945;BME280;35838;49.134;9.212;2023-06-10T12:42:38;99417.19;;;29.81;59.14
49945;BME280;35838;49.134;9.212;2023-06-10T12:44:12;99420.56;;;30.02;63.85
49945;BME280;35838;49.134;9.212;2023-06-10T12:45:43;99417.25;;;30.28;58.56
49945;BME280;35838;49.134;9.212;2023-06-10T12:47:16;99413.53;;;30.49;55.14
49945;BME280;35838;49.134;9.212;2023-06-10T12:48:50;99415.84;;;31.00;56.93
49945;BME280;35838;49.134;9.212;2023-06-10T12:50:25;99418.38;;;31.29;53.93
49945;BME280;35838;49.134;9.212;2023-06-10T12:51:59;99407.72;;;31.19;51.19
49945;BME280;35838;49.134;9.212;2023-06-10T12:53:32;99411.16;;;31.84;53.73
49945;BME280;35838;49.134;9.212;2023-06-10T12:55:07;99406.72;;;31.56;49.85
49945;BME280;35838;49.134;9.212;2023-06-10T12:56:41;99397.31;;;31.16;51.00
49945;BME280;35838;49.134;9.212;2023-06-10T12:58:18;99405.09;;;30.82;51.61
49945;BME280;35838;49.134;9.212;2023-06-10T12:59:52;99402.06;;;30.67;52.77
49945;BME280;35838;49.134;9.212;2023-06-10T13:01:31;99401.88;;;30.40;53.28
49945;BME280;35838;49.134;9.212;2023-06-10T13:03:04;99404.94;;;30.08;55.93
49945;BME280;35838;49.134;9.212;2023-06-10T13:04:38;99409.72;;;29.84;58.88
49945;BME280;35838;49.134;9.212;2023-06-10T13:06:13;99412.41;;;29.75;55.07
49945;BME280;35838;49.134;9.212;2023-06-10T13:07:47;99407.78;;;30.44;57.87
49945;BME280;35838;49.134;9.212;2023-06-10T13:09:21;99417.22;;;31.04;55.56
49945;BME280;35838;49.134;9.212;2023-06-10T13:10:55;99409.09;;;31.41;51.28
49945;BME280;35838;49.134;9.212;2023-06-10T13:12:28;99412.28;;;31.99;48.60
49945;BME280;35838;49.134;9.212;2023-06-10T13:14:05;99408.63;;;32.27;45.61
49945;BME280;35838;49.134;9.212;2023-06-10T13:15:38;99405.97;;;32.70;48.73
49945;BME280;35838;49.134;9.212;2023-06-10T13:17:12;99399.59;;;32.71;44.23
49945;BME280;35838;49.134;9.212;2023-06-10T13:18:45;99404.28;;;33.20;47.10
49945;BME280;35838;49.134;9.212;2023-06-10T13:20:19;99406.78;;;32.96;47.91
49945;BME280;35838;49.134;9.212;2023-06-10T13:21:53;99407.31;;;32.65;48.36
49945;BME280;35838;49.134;9.212;2023-06-10T13:23:27;99412.31;;;32.26;50.49
49945;BME280;35838;49.134;9.212;2023-06-10T13:25:02;99404.94;;;32.10;52.95
49945;BME280;35838;49.134;9.212;2023-06-10T13:26:37;99409.69;;;31.90;49.94
49945;BME280;35838;49.134;9.212;2023-06-10T13:28:11;99405.03;;;31.55;50.76
49945;BME280;35838;49.134;9.212;2023-06-10T13:29:47;99402.19;;;31.57;51.90
49945;BME280;35838;49.134;9.212;2023-06-10T13:31:21;99405.19;;;31.72;48.40
49945;BME280;35838;49.134;9.212;2023-06-10T13:32:54;99395.72;;;32.65;48.15
49945;BME280;35838;49.134;9.212;2023-06-10T13:34:28;99396.50;;;32.23;45.32
49945;BME280;35838;49.134;9.212;2023-06-10T13:36:02;99401.19;;;32.21;46.90
49945;BME280;35838;49.134;9.212;2023-06-10T13:37:35;99393.00;;;32.57;44.81
49945;BME280;35838;49.134;9.212;2023-06-10T13:39:09;99395.06;;;32.71;44.25
49945;BME280;35838;49.134;9.212;2023-06-10T13:40:44;99391.97;;;32.92;44.34
49945;BME280;35838;49.134;9.212;2023-06-10T13:42:18;99388.75;;;33.48;44.88
49945;BME280;35838;49.134;9.212;2023-06-10T13:43:51;99386.47;;;34.26;38.13
49945;BME280;35838;49.134;9.212;2023-06-10T13:45:27;99369.16;;;34.12;36.97
49945;BME280;35838;49.134;9.212;2023-06-10T13:47:01;99376.63;;;34.58;38.13
49945;BME280;35838;49.134;9.212;2023-06-10T13:48:35;99381.94;;;34.75;39.93
49945;BME280;35838;49.134;9.212;2023-06-10T13:50:09;99377.53;;;35.37;39.83
49945;BME280;35838;49.134;9.212;2023-06-10T13:51:43;99388.75;;;35.87;37.29
49945;BME280;35838;49.134;9.212;2023-06-10T13:53:17;99381.25;;;36.12;36.20
49945;BME280;35838;49.134;9.212;2023-06-10T13:54:51;99386.47;;;36.29;33.86
49945;BME280;35838;49.134;9.212;2023-06-10T13:56:24;99382.75;;;36.00;33.22
49945;BME280;35838;49.134;9.212;2023-06-10T13:57:58;99376.56;;;35.29;34.26
49945;BME280;35838;49.134;9.212;2023-06-10T13:59:31;99379.09;;;35.54;36.38
49945;BME280;35838;49.134;9.212;2023-06-10T14:01:08;99371.56;;;35.50;36.53
49945;BME280;35838;49.134;9.212;2023-06-10T14:02:41;99378.00;;;35.64;36.59
49945;BME280;35838;49.134;9.212;2023-06-10T14:04:15;99370.31;;;35.29;40.10
49945;BME280;35838;49.134;9.212;2023-06-10T14:05:49;99366.19;;;35.18;42.09
49945;BME280;35838;49.134;9.212;2023-06-10T14:07:22;99368.16;;;35.01;39.24
49945;BME280;35838;49.134;9.212;2023-06-10T14:08:56;99368.66;;;34.65;37.42
49945;BME280;35838;49.134;9.212;2023-06-10T14:10:30;99360.53;;;34.33;37.36
49945;BME280;35838;49.134;9.212;2023-06-10T14:12:04;99360.53;;;34.33;39.78
49945;BME280;35838;49.134;9.212;2023-06-10T14:13:37;99360.41;;;34.27;39.22
49945;BME280;35838;49.134;9.212;2023-06-10T14:15:11;99370.09;;;33.88;40.21
49945;BME280;35838;49.134;9.212;2023-06-10T14:16:47;99368.22;;;33.64;38.68
49945;BME280;35838;49.134;9.212;2023-06-10T14:18:21;99367.38;;;33.38;41.31
49945;BME280;35838;49.134;9.212;2023-06-10T14:19:54;99360.31;;;33.37;42.81
49945;BME280;35838;49.134;9.212;2023-06-10T14:21:28;99367.34;;;33.22;39.11
49945;BME280;35838;49.134;9.212;2023-06-10T14:23:02;99360.09;;;33.06;41.55
49945;BME280;35838;49.134;9.212;2023-06-10T14:24:35;99360.25;;;33.04;43.86
49945;BME280;35838;49.134;9.212;2023-06-10T14:26:09;99354.47;;;32.74;40.08
49945;BME280;35838;49.134;9.212;2023-06-10T14:27:43;99362.41;;;32.84;43.71
49945;BME280;35838;49.134;9.212;2023-06-10T14:29:17;99361.78;;;32.56;43.57
49945;BME280;35838;49.134;9.212;2023-06-10T14:30:51;99370.50;;;32.58;44.83
49945;BME280;35838;49.134;9.212;2023-06-10T14:32:28;99362.50;;;32.31;43.12
49945;BME280;35838;49.134;9.212;2023-06-10T14:34:01;99361.31;;;32.26;45.92
49945;BME280;35838;49.134;9.212;2023-06-10T14:35:36;99355.63;;;32.29;48.89
49945;BME280;35838;49.134;9.212;2023-06-10T14:37:10;99365.50;;;32.02;43.15
49945;BME280;35838;49.134;9.212;2023-06-10T14:38:43;99357.59;;;32.00;44.76
49945;BME280;35838;49.134;9.212;2023-06-10T14:40:17;99355.31;;;32.06;45.55
49945;BME280;35838;49.134;9.212;2023-06-10T14:41:52;99347.94;;;31.81;44.75
49945;BME280;35838;49.134;9.212;2023-06-10T14:43:23;99342.56;;;31.81;44.34
49945;BME280;35838;49.134;9.212;2023-06-10T14:44:57;99346.09;;;31.64;43.00
49945;BME280;35838;49.134;9.212;2023-06-10T14:46:30;99350.44;;;31.83;46.01
49945;BME280;35838;49.134;9.212;2023-06-10T14:48:07;99355.72;;;31.93;45.61
49945;BME280;35838;49.134;9.212;2023-06-10T14:49:41;99350.56;;;31.99;42.46
49945;BME280;35838;49.134;9.212;2023-06-10T14:51:15;99344.34;;;31.99;44.77
49945;BME280;35838;49.134;9.212;2023-06-10T14:52:48;99354.44;;;32.05;50.25
49945;BME280;35838;49.134;9.212;2023-06-10T14:54:22;99347.81;;;32.17;48.51
49945;BME280;35838;49.134;9.212;2023-06-10T14:55:56;99338.94;;;32.17;42.85
49945;BME280;35838;49.134;9.212;2023-06-10T14:57:29;99346.06;;;31.74;43.27
49945;BME280;35838;49.134;9.212;2023-06-10T14:59:03;99346.09;;;31.64;43.61
49945;BME280;35838;49.134;9.212;2023-06-10T15:00:36;99344.94;;;31.84;46.88
49945;BME280;35838;49.134;9.212;2023-06-10T15:02:10;99346.78;;;31.66;45.91
49945;BME280;35838;49.134;9.212;2023-06-10T15:03:46;99336.84;;;31.76;45.52
49945;BME280;35838;49.134;9.212;2023-06-10T15:05:20;99322.78;;;31.82;49.83
49945;BME280;35838;49.134;9.212;2023-06-10T15:06:53;99346.16;;;31.90;50.28
49945;BME280;35838;49.134;9.212;2023-06-10T15:08:27;99338.38;;;31.79;43.96
49945;BME280;35838;49.134;9.212;2023-06-10T15:10:01;99338.56;;;31.41;44.27
49945;BME280;35838;49.134;9.212;2023-06-10T15:11:37;99336.19;;;31.38;49.22
49945;BME280;35838;49.134;9.212;2023-06-10T15:13:12;99329.91;;;31.47;50.19
49945;BME280;35838;49.134;9.212;2023-06-10T15:14:46;99332.50;;;31.39;46.68
49945;BME280;35838;49.134;9.212;2023-06-10T15:16:19;99341.09;;;31.24;50.15
49945;BME280;35838;49.134;9.212;2023-06-10T15:17:53;99336.16;;;31.02;47.69
49945;BME280;35838;49.134;9.212;2023-06-10T15:19:29;99332.69;;;30.91;45.54
49945;BME280;35838;49.134;9.212;2023-06-10T15:21:03;99331.41;;;30.95;44.63
49945;BME280;35838;49.134;9.212;2023-06-10T15:22:34;99333.59;;;30.82;45.00
49945;BME280;35838;49.134;9.212;2023-06-10T15:24:08;99330.94;;;30.82;47.11
49945;BME280;35838;49.134;9.212;2023-06-10T15:25:39;99334.44;;;31.10;51.04
49945;BME280;35838;49.134;9.212;2023-06-10T15:27:13;99326.63;;;31.35;51.30
49945;BME280;35838;49.134;9.212;2023-06-10T15:28:46;99336.69;;;31.60;50.60
49945;BME280;35838;49.134;9.212;2023-06-10T15:30:17;99335.84;;;31.77;44.27
49945;BME280;35838;49.134;9.212;2023-06-10T15:31:51;99330.94;;;31.99;49.32
49945;BME280;35838;49.134;9.212;2023-06-10T15:33:25;99323.91;;;32.24;48.75
49945;BME280;35838;49.134;9.212;2023-06-10T15:35:01;99321.50;;;32.21;42.08
49945;BME280;35838;49.134;9.212;2023-06-10T15:36:35;99327.13;;;32.36;42.34
49945;BME280;35838;49.134;9.212;2023-06-10T15:38:09;99318.22;;;32.35;42.82
49945;BME280;35838;49.134;9.212;2023-06-10T15:39:43;99317.44;;;32.52;44.27
49945;BME280;35838;49.134;9.212;2023-06-10T15:41:16;99310.00;;;32.80;46.36
49945;BME280;35838;49.134;9.212;2023-06-10T15:42:50;99316.56;;;33.02;41.98
49945;BME280;35838;49.134;9.212;2023-06-10T15:44:23;99307.56;;;33.45;41.75
49945;BME280;35838;49.134;9.212;2023-06-10T15:45:57;99310.00;;;33.79;39.78
49945;BME280;35838;49.134;9.212;2023-06-10T15:47:31;99308.38;;;34.26;40.02
49945;BME280;35838;49.134;9.212;2023-06-10T15:49:04;99313.97;;;34.64;37.60
49945;BME280;35838;49.134;9.212;2023-06-10T15:50:41;99308.50;;;35.27;38.45
49945;BME280;35838;49.134;9.212;2023-06-10T15:52:15;99310.09;;;35.60;36.92
49945;BME280;35838;49.134;9.212;2023-06-10T15:53:49;99310.22;;;36.27;37.00
49945;BME280;35838;49.134;9.212;2023-06-10T15:55:23;99310.00;;;36.58;34.14
49945;BME280;35838;49.134;9.212;2023-06-10T15:56:57;99306.38;;;36.88;34.18
49945;BME280;35838;49.134;9.212;2023-06-10T15:58:31;99314.88;;;37.50;33.49
49945;BME280;35838;49.134;9.212;2023-06-10T16:00:05;99309.72;;;38.25;32.18
49945;BME280;35838;49.134;9.212;2023-06-10T16:01:39;99312.09;;;39.10;30.25
49945;BME280;35838;49.134;9.212;2023-06-10T16:03:13;99310.03;;;39.53;26.66
49945;BME280;35838;49.134;9.212;2023-06-10T16:04:47;99306.56;;;40.11;26.31
49945;BME280;35838;49.134;9.212;2023-06-10T16:06:23;99304.28;;;40.67;25.69
49945;BME280;35838;49.134;9.212;2023-06-10T16:07:56;99312.44;;;40.99;25.08
49945;BME280;35838;49.134;9.212;2023-06-10T16:09:30;99303.94;;;40.43;25.03
49945;BME280;35838;49.134;9.212;2023-06-10T16:11:04;99304.91;;;41.01;25.20
49945;BME280;35838;49.134;9.212;2023-06-10T16:12:39;99305.22;;;41.69;24.55
49945;BME280;35838;49.134;9.212;2023-06-10T16:14:12;99299.75;;;42.73;24.18
49945;BME280;35838;49.134;9.212;2023-06-10T16:15:46;99305.72;;;43.48;23.29
49945;BME280;35838;49.134;9.212;2023-06-10T16:17:20;99308.78;;;44.11;21.78
49945;BME280;35838;49.134;9.212;2023-06-10T16:18:54;99307.72;;;44.82;20.68
49945;BME280;35838;49.134;9.212;2023-06-10T16:20:27;99308.81;;;44.81;19.93
49945;BME280;35838;49.134;9.212;2023-06-10T16:22:01;99312.72;;;44.44;19.00
49945;BME280;35838;49.134;9.212;2023-06-10T16:23:34;99314.28;;;43.88;20.59
49945;BME280;35838;49.134;9.212;2023-06-10T16:25:09;99307.13;;;44.10;21.02
49945;BME280;35838;49.134;9.212;2023-06-10T16:26:40;99309.16;;;44.03;20.81
49945;BME280;35838;49.134;9.212;2023-06-10T16:28:14;99305.75;;;43.60;20.85
49945;BME280;35838;49.134;9.212;2023-06-10T16:29:45;99312.44;;;42.00;21.77
49945;BME280;35838;49.134;9.212;2023-06-10T16:31:18;99320.25;;;40.50;23.97
49945;BME280;35838;49.134;9.212;2023-06-10T16:32:52;99318.13;;;39.19;25.04
49945;BME280;35838;49.134;9.212;2023-06-10T16:34:26;99317.72;;;39.22;25.26
49945;BME280;35838;49.134;9.212;2023-06-10T16:36:00;99321.28;;;39.56;25.60
49945;BME280;35838;49.134;9.212;2023-06-10T16:37:36;99320.06;;;39.79;24.55
49945;BME280;35838;49.134;9.212;2023-06-10T16:39:10;99324.16;;;40.15;24.76
49945;BME280;35838;49.134;9.212;2023-06-10T16:40:44;99317.03;;;40.07;25.44
49945;BME280;35838;49.134;9.212;2023-06-10T16:42:15;99319.84;;;39.60;25.34
49945;BME280;35838;49.134;9.212;2023-06-10T16:43:49;99315.31;;;38.59;25.03
49945;BME280;35838;49.134;9.212;2023-06-10T16:45:22;99317.88;;;37.90;26.19
49945;BME280;35838;49.134;9.212;2023-06-10T16:46:56;99322.28;;;36.97;28.31
49945;BME280;35838;49.134;9.212;2023-06-10T16:48:30;99324.91;;;36.24;29.69
49945;BME280;35838;49.134;9.212;2023-06-10T16:50:03;99331.56;;;35.53;31.27
49945;BME280;35838;49.134;9.212;2023-06-10T16:51:37;99315.56;;;35.05;33.46
49945;BME280;35838;49.134;9.212;2023-06-10T16:53:13;99324.09;;;34.54;34.29
49945;BME280;35838;49.134;9.212;2023-06-10T16:54:47;99316.22;;;34.04;34.37
49945;BME280;35838;49.134;9.212;2023-06-10T16:56:21;99317.13;;;33.47;36.80
49945;BME280;35838;49.134;9.212;2023-06-10T16:57:55;99319.13;;;32.53;36.79
49945;BME280;35838;49.134;9.212;2023-06-10T16:59:28;99325.78;;;32.40;38.03
49945;BME280;35838;49.134;9.212;2023-06-10T17:01:04;99328.97;;;32.09;38.84
49945;BME280;35838;49.134;9.212;2023-06-10T17:02:38;99324.56;;;32.00;42.20